WetterOnline ( https://www.wetteronline.de )

Wetter aktuell Mirow

Aktuelles Wetter: Waren (71m)

6-stündlich | Neueste Meldungen
Ortszeit Temperatur Wetter
Mo, 06.12. 1:00 -0.3° C leicht bewölkt
So, 05.12. 19:00 0.3° C bedeckt
So, 05.12. 13:00 0.7° C bedeckt
So, 05.12. 7:00 0.2° C Schneefall
So, 05.12. 1:00 1.3° C Schneefall
Sa, 04.12. 19:00 2.2° C bedeckt
Sa, 04.12. 13:00 2.6° C bewölkt
Sa, 04.12. 7:00 2.3° C bedeckt
Ortszeit Temperatur Wetter
Mo, 06.12. 4:30 -1.4° C wolkig
Mo, 06.12. 4:20 -1.4° C wolkig
Mo, 06.12. 4:10 -1.4° C wolkig
Mo, 06.12. 4:00 -1.6° C wolkig
Mo, 06.12. 3:50 -1.6° C Dunst
Mo, 06.12. 3:40 -1.7° C Dunst
Mo, 06.12. 3:30 -1.9° C wolkenlos
Mo, 06.12. 3:00 -1.5° C fast wolkenlos
Mo, 06.12. 2:30 -1.2° C wolkenlos
Mo, 06.12. 2:00 -0.6° C wolkenlos
Mo, 06.12. 1:30 -0.6° C leicht bewölkt
Ortszeit Relative Feuchte Sichtweite
Mo, 06.12. 1:00 92% 9 km
So, 05.12. 19:00 94% 5.0 km
So, 05.12. 13:00 94% 5.0 km
So, 05.12. 7:00 96% 1.6 km
So, 05.12. 1:00 91% 9 km
Sa, 04.12. 19:00 92% 17 km
Sa, 04.12. 13:00 94% 7 km
Sa, 04.12. 7:00 96% 6 km
Ortszeit Relative Feuchte Sichtweite
Mo, 06.12. 4:30 92% 11 km
Mo, 06.12. 4:20 92% -
Mo, 06.12. 4:10 92% -
Mo, 06.12. 4:00 94% 7 km
Mo, 06.12. 3:50 94% -
Mo, 06.12. 3:40 95% -
Mo, 06.12. 3:30 95% 5.0 km
Mo, 06.12. 3:00 94% 5.0 km
Mo, 06.12. 2:30 94% 6 km
Mo, 06.12. 2:00 92% 8 km
Mo, 06.12. 1:30 93% 8 km
Ortszeit Niederschlagsmenge Niederschlagsart
Mo, 06.12. 1:00 0.1 l/m2 in 6 Std. Schnee
So, 05.12. 19:00 1 l/m2 in 12 Std. Schnee, Regen
So, 05.12. 13:00 0.5 l/m2 in 6 Std. Schnee, Sprühregen
So, 05.12. 7:00 7 l/m2 in 12 Std. Schnee
So, 05.12. 1:00 0.1 l/m2 in 6 Std. Schnee, Regen
Sa, 04.12. 19:00 0.0 l/m2 in 12 Std. -
Sa, 04.12. 13:00 0.0 l/m2 in 6 Std. -
Sa, 04.12. 7:00 0.6 l/m2 in 12 Std. Regen
Ortszeit Niederschlagsmenge Niederschlagsart
Mo, 06.12. 4:30 0.0 l/m2 in 1 Std. -
Mo, 06.12. 4:20 keine Meldung -
Mo, 06.12. 4:10 keine Meldung -
Mo, 06.12. 4:00 0.0 l/m2 in 1 Std. -
Mo, 06.12. 3:50 keine Meldung -
Mo, 06.12. 3:40 keine Meldung -
Mo, 06.12. 3:30 0.0 l/m2 in 1 Std. -
Mo, 06.12. 3:00 0.0 l/m2 in 1 Std. -
Mo, 06.12. 2:30 0.0 l/m2 in 1 Std. -
Mo, 06.12. 2:00 0.0 l/m2 in 1 Std. -
Mo, 06.12. 1:30 0.0 l/m2 in 1 Std. -
Ortszeit Stärke Spitze Richtung
km/h Bft. km/h Grad Sektor
Mo, 06.12. 1:00 7 2 18 40° NO
So, 05.12. 19:00 11 2 22 50° NO
So, 05.12. 13:00 6 1 24 60° NO
So, 05.12. 7:00 9 2 24 70° O
So, 05.12. 1:00 11 2 29 90° O
Sa, 04.12. 19:00 11 2 29 130° SO
Sa, 04.12. 13:00 11 2 22 180° S
Sa, 04.12. 7:00 11 2 29 210° SW
Ortszeit Stärke Spitze Richtung
km/h Bft. km/h Grad Sektor
Mo, 06.12. 4:30 6 1 13 30° NO
Mo, 06.12. 4:20 6 1 - 30° NO
Mo, 06.12. 4:10 7 2 - 30° NO
Mo, 06.12. 4:00 6 1 11 20° N
Mo, 06.12. 3:50 6 1 - 20° N
Mo, 06.12. 3:40 7 2 - 30° NO
Mo, 06.12. 3:30 7 2 11 10° N
Mo, 06.12. 3:00 4 1 14 30° NO
Mo, 06.12. 2:30 4 1 14 30° NO
Mo, 06.12. 2:00 7 2 14 40° NO
Mo, 06.12. 1:30 6 1 13 30° NO
Ortszeit Untergrenze Bedeckung Gattung
total tief tief mittel hoch
Mo, 06.12. 1:00 1470 m 3/8 1/8 - - -
So, 05.12. 19:00 150 m 8/8 8/8 - - -
So, 05.12. 13:00 150 m 8/8 8/8 - - -
So, 05.12. 7:00 120 m 7/8 7/8 - - -
So, 05.12. 1:00 300 m 7/8 7/8 - - -
Sa, 04.12. 19:00 150 m 8/8 8/8 - - -
Sa, 04.12. 13:00 90 m 7/8 8/8 - - -
Sa, 04.12. 7:00 90 m 8/8 8/8 - - -
Ortszeit Bedeckungsgrad in Achtel und Wolkenuntergrenze
Mo, 06.12. 4:30 1(1020m) 8(5700m)
Mo, 06.12. 4:20 1(1020m) 8(5700m)
Mo, 06.12. 4:10 3(1020m) 8(5700m)
Mo, 06.12. 4:00 4(1050m) 7(5400m)
Mo, 06.12. 3:50 4(1050m) 7(5400m)
Mo, 06.12. 3:40 1(1050m) 6(5400m)
Mo, 06.12. 3:30 3(5400m)
Mo, 06.12. 3:00 1(990m)
Mo, 06.12. 2:30 keine Wolken
Mo, 06.12. 2:00 keine Wolken
Mo, 06.12. 1:30 3(8700m)
Ortszeit Luftdruck NN (hPa) Tendenz (hPa in 3 Std.)
Mo, 06.12. 1:00 1013 + 1,2
So, 05.12. 19:00 1010 + 2,2
So, 05.12. 13:00 1006 + 1,5
So, 05.12. 7:00 1002 + 1,7
So, 05.12. 1:00 999 + 0,5
Sa, 04.12. 19:00 999 + 0,1
Sa, 04.12. 13:00 999 - 0,9
Sa, 04.12. 7:00 999 - 0,7
Ortszeit Luftdruck NN (hPa) Tendenz (hPa in 3 Std.)
Mo, 06.12. 4:30 1015 + 1,4
Mo, 06.12. 4:20 1015 keine Meldung
Mo, 06.12. 4:10 1015 keine Meldung
Mo, 06.12. 4:00 1015 + 1,4
Mo, 06.12. 3:50 1015 keine Meldung
Mo, 06.12. 3:40 1015 keine Meldung
Mo, 06.12. 3:30 1014 + 1,4
Mo, 06.12. 3:00 1014 + 1,2
Mo, 06.12. 2:30 1014 + 1,4
Mo, 06.12. 2:00 1014 + 1,2
Mo, 06.12. 1:30 1013 + 1,1
Ortszeit Schneehöhe (cm)
Mo, 06.12. 1:00 5
So, 05.12. 19:00 5
So, 05.12. 13:00 5
So, 05.12. 7:00 6
So, 05.12. 1:00 0
Sa, 04.12. 19:00 0
Sa, 04.12. 13:00 0
Sa, 04.12. 7:00 0
Ortszeit Schneehöhe (cm)
Mo, 06.12. 4:30 5
Mo, 06.12. 4:20 5
Mo, 06.12. 4:10 5
Mo, 06.12. 4:00 5
Mo, 06.12. 3:50 5
Mo, 06.12. 3:40 5
Mo, 06.12. 3:30 5
Mo, 06.12. 3:00 5
Mo, 06.12. 2:30 5
Mo, 06.12. 2:00 5
Mo, 06.12. 1:30 5
Link zu dieser Seite / Seite empfehlen

Das Wetter in ...